Time;durP1;ratioP1;P1;durP2;ratioP2;P2;SDS_P1;SDS_P2;PMS_P1;PMS_P2;Temp;Humidity;BMP_temperature;BMP_pressure;BME280_temperature;BME280_humidity;BME280_pressure;Samples;Min_cycle;Max_cycle;Signal;HPM_P1;HPM_P2
2022/01/01 00:00:23;;;;;;;59.22;37.28;;;;;;;11.19;99.81;102149.06;1038774;28;20290;-82
2022/01/01 00:00:55;;;;;;;61.53;39.47;;;;;;;11.17;99.45;102151.09;1035555;28;20420;-82
2022/01/01 00:01:27;;;;;;;56.20;39.03;;;;;;;11.16;100.00;102144.09;1039367;28;20362;-82
2022/01/01 00:01:59;;;;;;;45.67;37.72;;;;;;;11.14;99.97;102141.63;1034912;28;20281;-82
2022/01/01 00:02:31;;;;;;;56.95;37.67;;;;;;;11.13;99.92;102155.97;1031730;28;20320;-83
2022/01/01 00:03:10;;;;;;;67.15;42.38;;;;;;;11.13;100.00;102149.81;1034885;28;20418;-82
2022/01/01 00:03:41;;;;;;;57.97;42.25;;;;;;;11.13;99.93;102153.31;1031253;28;20336;-82
2022/01/01 00:04:13;;;;;;;61.95;42.70;;;;;;;11.10;99.95;102156.34;1027518;28;20355;-82
2022/01/01 00:04:45;;;;;;;65.07;43.85;;;;;;;11.11;100.00;102155.34;1031150;28;20285;-82
2022/01/01 00:05:16;;;;;;;62.55;44.35;;;;;;;11.11;99.83;102154.50;1031474;28;20284;-82
2022/01/01 00:05:48;;;;;;;59.97;43.75;;;;;;;11.09;99.89;102156.53;1036619;28;20283;-81
2022/01/01 00:06:19;;;;;;;65.88;42.80;;;;;;;11.08;100.00;102154.88;1042990;28;20756;-78
2022/01/01 00:06:51;;;;;;;66.00;45.85;;;;;;;11.07;99.92;102156.72;1041343;28;20283;-79
2022/01/01 00:07:24;;;;;;;61.28;44.40;;;;;;;11.07;100.00;102164.72;1035009;28;20435;-77
2022/01/01 00:07:57;;;;;;;67.72;46.13;;;;;;;11.06;100.00;102155.06;1030415;28;20290;-78
2022/01/01 00:08:29;;;;;;;68.82;45.97;;;;;;;11.07;100.00;102158.56;1027798;28;20290;-77
2022/01/01 00:09:00;;;;;;;61.35;44.05;;;;;;;11.06;100.00;102154.25;1027885;28;20294;-77
2022/01/01 00:09:32;;;;;;;66.63;44.75;;;;;;;11.06;100.00;102160.41;1031406;28;20288;-78
2022/01/01 00:10:03;;;;;;;61.10;44.45;;;;;;;11.04;100.00;102154.44;1031729;28;20294;-78
2022/01/01 00:10:35;;;;;;;61.25;42.55;;;;;;;11.04;100.00;102156.28;1032690;28;20397;-78
2022/01/01 00:11:19;;;;;;;66.10;42.35;;;;;;;11.03;100.00;102151.97;1033360;28;20688;-78
2022/01/01 00:11:55;;;;;;;67.85;44.35;;;;;;;11.00;100.00;102166.50;1030711;28;20792;-77
2022/01/01 00:12:29;;;;;;;75.72;43.35;;;;;;;11.04;100.00;102161.63;1029773;28;20308;-78
2022/01/01 00:13:10;;;;;;;65.40;44.00;;;;;;;11.02;100.00;102174.31;1033765;28;20312;-78
2022/01/01 00:13:42;;;;;;;70.40;40.83;;;;;;;11.03;100.00;102165.28;1035363;28;20281;-77
2022/01/01 00:14:29;;;;;;;61.45;41.35;;;;;;;11.08;100.00;102160.22;1037501;28;20273;-77
2022/01/01 00:15:00;;;;;;;66.53;40.25;;;;;;;11.07;100.00;102166.56;1039277;28;20280;-76
2022/01/01 00:15:32;;;;;;;70.85;41.67;;;;;;;11.07;100.00;102166.56;1032798;28;20288;-77
2022/01/01 00:16:09;;;;;;;65.95;41.90;;;;;;;11.08;100.00;102168.22;1035092;28;20289;-78
2022/01/01 00:16:40;;;;;;;67.57;40.90;;;;;;;11.03;100.00;102171.47;1031996;28;20290;-77
2022/01/01 00:17:12;;;;;;;63.25;38.80;;;;;;;11.02;100.00;102172.47;1032497;28;20312;-77
2022/01/01 00:17:43;;;;;;;63.03;44.60;;;;;;;11.01;100.00;102170.00;1034858;28;20339;-77
2022/01/01 00:18:16;;;;;;;67.40;40.53;;;;;;;11.05;100.00;102168.59;1031103;28;20302;-78
2022/01/01 00:18:48;;;;;;;70.18;41.83;;;;;;;11.04;100.00;102177.63;1031416;28;20303;-78
2022/01/01 00:19:19;;;;;;;59.83;41.92;;;;;;;11.07;100.00;102174.56;1034640;28;20280;-78
2022/01/01 00:19:51;;;;;;;71.68;43.05;;;;;;;11.05;100.00;102181.94;1035185;28;20280;-78
2022/01/01 00:20:22;;;;;;;63.45;40.33;;;;;;;11.04;100.00;102178.44;1038293;28;20284;-77
2022/01/01 00:20:54;;;;;;;61.17;40.38;;;;;;;11.04;100.00;102180.28;1032813;28;20672;-78
2022/01/01 00:21:25;;;;;;;59.50;41.97;;;;;;;11.02;100.00;102179.66;1035158;28;20501;-76
2022/01/01 00:22:01;;;;;;;60.78;38.95;;;;;;;11.02;100.00;102176.97;1033764;28;20300;-76
2022/01/01 00:22:33;;;;;;;68.35;43.45;;;;;;;11.01;100.00;102178.00;1030203;28;20646;-76
2022/01/01 00:23:04;;;;;;;62.00;42.45;;;;;;;10.99;100.00;102172.03;1027977;28;20304;-77
2022/01/01 00:23:39;;;;;;;62.17;43.17;;;;;;;10.99;100.00;102174.69;1034084;28;20752;-77
2022/01/01 00:24:11;;;;;;;71.68;43.45;;;;;;;11.01;100.00;102178.00;1031339;28;20444;-77
2022/01/01 00:24:43;;;;;;;63.17;42.25;;;;;;;11.01;100.00;102170.00;1036097;28;20280;-76
2022/01/01 00:25:15;;;;;;;75.15;44.90;;;;;;;11.01;100.00;102170.00;1034112;28;20293;-76
2022/01/01 00:25:46;;;;;;;63.72;42.70;;;;;;;11.04;100.00;102177.63;1029975;28;20298;-77
2022/01/01 00:26:18;;;;;;;71.45;45.03;;;;;;;11.01;100.00;102167.31;1030819;28;20294;-77
2022/01/01 00:26:50;;;;;;;59.80;42.97;;;;;;;11.01;100.00;102170.00;1029767;28;20419;-77
2022/01/01 00:27:21;;;;;;;64.80;44.30;;;;;;;11.05;100.00;102169.44;1035399;28;20281;-77
2022/01/01 00:27:53;;;;;;;63.83;45.03;;;;;;;11.05;100.00;102176.59;1038337;28;20663;-77
2022/01/01 00:28:25;;;;;;;68.35;45.35;;;;;;;11.06;100.00;102170.25;1034800;28;20375;-78
2022/01/01 00:28:56;;;;;;;67.78;47.42;;;;;;;11.07;100.00;102171.91;1035128;28;20782;-77
2022/01/01 00:29:28;;;;;;;75.93;46.95;;;;;;;11.06;100.00;102171.09;1034386;28;20787;-78
2022/01/01 00:30:00;;;;;;;68.78;45.58;;;;;;;11.06;100.00;102175.59;1031227;28;20781;-78
2022/01/01 00:30:31;;;;;;;70.43;48.28;;;;;;;11.05;100.00;102171.25;1035241;28;20684;-78
2022/01/01 00:31:03;;;;;;;78.28;49.08;;;;;;;11.03;100.00;102176.78;1034503;28;20284;-78
2022/01/01 00:31:35;;;;;;;66.10;44.53;;;;;;;11.03;100.00;102176.78;1026453;28;20293;-78
2022/01/01 00:32:06;;;;;;;70.80;47.10;;;;;;;11.03;100.00;102175.97;1022849;28;20310;-78
2022/01/01 00:32:38;;;;;;;75.32;49.05;;;;;;;11.04;100.00;102169.63;1023719;28;20924;-78
2022/01/01 00:33:10;;;;;;;75.95;49.20;;;;;;;11.04;100.00;102178.44;1027549;28;20282;-78
2022/01/01 00:33:41;;;;;;;74.88;52.25;;;;;;;11.04;100.00;102169.63;1030081;28;20293;-78
2022/01/01 00:34:13;;;;;;;73.07;49.53;;;;;;;11.05;100.00;102176.59;1029848;28;20657;-78
2022/01/01 00:34:45;;;;;;;77.43;51.55;;;;;;;11.03;100.00;102181.28;1032177;28;20288;-78
2022/01/01 00:35:16;;;;;;;70.47;49.65;;;;;;;11.04;100.00;102188.28;1034956;28;20279;-78
2022/01/01 00:35:48;;;;;;;79.40;51.80;;;;;;;11.04;100.00;102182.94;1038388;28;20771;-78
2022/01/01 00:36:19;;;;;;;82.35;52.40;;;;;;;11.03;100.00;102186.63;1034582;28;20283;-78
2022/01/01 00:36:51;;;;;;;74.80;52.67;;;;;;;11.02;100.00;102188.47;1035308;28;20291;-78
2022/01/01 00:37:22;;;;;;;73.40;51.40;;;;;;;10.99;100.00;102190.69;1038835;28;20767;-77
2022/01/01 00:37:54;;;;;;;85.25;56.22;;;;;;;10.99;100.00;102191.50;1039249;28;20323;-78
2022/01/01 00:38:25;;;;;;;70.32;52.85;;;;;;;11.01;100.00;102191.31;1034446;28;20302;-78
2022/01/01 00:38:57;;;;;;;79.47;52.38;;;;;;;11.02;100.00;102190.31;1033219;28;20312;-78
2022/01/01 00:39:28;;;;;;;71.90;52.38;;;;;;;11.01;100.00;102192.16;1026437;28;20286;-76
2022/01/01 00:40:00;;;;;;;79.22;54.92;;;;;;;10.99;100.00;102193.34;1026163;28;20290;-74
2022/01/01 00:40:31;;;;;;;75.05;53.95;;;;;;;11.02;100.00;102190.31;1027418;28;20288;-74
2022/01/01 00:41:03;;;;;;;83.43;55.10;;;;;;;11.02;100.00;102195.63;1034428;28;20649;-74
2022/01/01 00:41:34;;;;;;;83.55;58.33;;;;;;;11.03;100.00;102192.78;1034593;28;20354;-75
2022/01/01 00:42:06;;;;;;;76.45;55.60;;;;;;;11.04;100.00;102193.63;1036923;28;20770;-74
2022/01/01 00:42:38;;;;;;;77.80;57.65;;;;;;;11.02;100.00;102200.97;1038601;28;20288;-75
2022/01/01 00:43:10;;;;;;;88.07;58.67;;;;;;;11.02;100.00;102200.97;1039089;28;20275;-74
2022/01/01 00:43:41;;;;;;;86.65;58.60;;;;;;;11.01;100.00;102199.31;1038693;28;20291;-74
2022/01/01 00:44:13;;;;;;;84.18;57.60;;;;;;;11.01;100.00;102199.31;1038692;28;20287;-76
2022/01/01 00:44:44;;;;;;;78.28;58.38;;;;;;;11.01;100.00;102197.47;1030633;28;20284;-74
2022/01/01 00:45:16;;;;;;;83.20;56.20;;;;;;;11.00;100.00;102197.66;1026167;28;20305;-75
2022/01/01 00:45:47;;;;;;;93.50;56.20;;;;;;;11.01;100.00;102200.16;1026774;28;20932;-74
2022/01/01 00:46:19;;;;;;;88.22;61.25;;;;;;;10.97;100.00;102198.03;1025635;28;20310;-75
2022/01/01 00:46:51;;;;;;;81.82;58.95;;;;;;;10.98;100.00;102195.19;1026395;28;20281;-75
2022/01/01 00:47:22;;;;;;;81.18;56.40;;;;;;;10.98;100.00;102194.38;1029705;28;20642;-74
2022/01/01 00:47:54;;;;;;;86.97;58.95;;;;;;;10.99;100.00;102196.00;1034331;28;20664;-74
2022/01/01 00:48:25;;;;;;;82.93;60.20;;;;;;;11.01;100.00;102199.31;1033992;28;20644;-74
2022/01/01 00:49:15;;;;;;;92.47;56.58;;;;;;;10.98;100.00;102197.03;1037714;28;20307;-74
2022/01/01 00:49:46;;;;;;;86.07;54.55;;;;;;;11.00;100.00;102192.34;1038440;28;20290;-75
2022/01/01 00:50:18;;;;;;;77.90;56.65;;;;;;;10.99;100.00;102196.00;1039029;28;20802;-75
2022/01/01 00:50:49;;;;;;;81.30;52.53;;;;;;;11.02;100.00;102200.97;1034594;28;20293;-74
2022/01/01 00:51:21;;;;;;;81.80;52.78;;;;;;;11.03;100.00;102199.97;1033555;28;20291;-74
2022/01/01 00:51:52;;;;;;;82.55;54.33;;;;;;;11.00;100.00;102193.16;1034880;28;20296;-75
2022/01/01 00:52:24;;;;;;;82.68;55.42;;;;;;;10.98;100.00;102199.69;1031491;28;20273;-74
2022/01/01 00:52:55;;;;;;;79.05;53.50;;;;;;;10.97;100.00;102192.72;1038396;28;20292;-75
2022/01/01 00:53:27;;;;;;;84.10;53.95;;;;;;;11.01;100.00;102202.81;1030680;28;20281;-75
2022/01/01 00:53:58;;;;;;;83.13;52.90;;;;;;;11.06;100.00;102197.75;1030748;28;20286;-74
2022/01/01 00:54:30;;;;;;;87.07;55.67;;;;;;;11.04;100.00;102198.94;1034721;28;20299;-74
2022/01/01 00:55:02;;;;;;;75.00;51.97;;;;;;;11.02;100.00;102195.63;1030890;28;20286;-74
2022/01/01 00:55:33;;;;;;;78.85;53.05;;;;;;;11.02;100.00;102195.63;1029991;28;20297;-75
2022/01/01 00:56:05;;;;;;;73.65;54.38;;;;;;;11.02;100.00;102203.63;1029260;28;20282;-75
2022/01/01 00:56:36;;;;;;;75.18;50.58;;;;;;;11.01;100.00;102202.00;1024858;28;20293;-74
2022/01/01 00:57:08;;;;;;;79.22;51.35;;;;;;;11.04;100.00;102198.94;1030834;28;20642;-75
2022/01/01 00:57:39;;;;;;;74.80;51.28;;;;;;;11.04;100.00;102201.63;1035110;28;20288;-74
2022/01/01 00:58:11;;;;;;;86.03;52.13;;;;;;;11.04;100.00;102198.94;1030851;28;20285;-75
2022/01/01 00:58:43;;;;;;;81.13;51.28;;;;;;;11.05;100.00;102203.25;1034123;28;20284;-75
2022/01/01 00:59:15;;;;;;;70.32;51.40;;;;;;;11.04;100.00;102198.94;1033774;28;20287;-74
2022/01/01 00:59:46;;;;;;;84.10;49.72;;;;;;;11.06;100.00;102202.25;1027497;28;20421;-75
2022/01/01 01:00:18;;;;;;;86.57;53.25;;;;;;;11.05;100.00;102208.59;1034531;28;20289;-74
2022/01/01 01:00:49;;;;;;;77.50;50.03;;;;;;;11.04;100.00;102198.94;1034932;28;20753;-74
2022/01/01 01:01:21;;;;;;;80.15;51.35;;;;;;;11.03;100.00;102202.63;1031228;28;20882;-75
2022/01/01 01:01:53;;;;;;;76.82;50.22;;;;;;;11.03;100.00;102198.13;1038561;28;20287;-75
2022/01/01 01:02:25;;;;;;;77.22;49.40;;;;;;;11.03;100.00;102203.44;1034349;28;20285;-74
2022/01/01 01:02:56;;;;;;;82.35;51.72;;;;;;;11.04;100.00;102199.78;1034089;28;20655;-75
2022/01/01 01:03:28;;;;;;;87.47;50.90;;;;;;;11.04;100.00;102193.63;1035147;28;20273;-74
2022/01/01 01:04:00;;;;;;;69.97;48.80;;;;;;;11.04;100.00;102196.28;1034498;28;20289;-75
2022/01/01 01:04:31;;;;;;;81.80;51.15;;;;;;;11.07;100.00;102198.56;1033468;28;20287;-75
2022/01/01 01:05:03;;;;;;;73.88;49.80;;;;;;;11.07;100.00;102195.91;1027928;28;20298;-74
2022/01/01 01:05:36;;;;;;;68.60;48.65;;;;;;;11.04;100.00;102197.09;1031666;28;20285;-74
2022/01/01 01:06:10;;;;;;;69.63;47.85;;;;;;;11.04;100.00;102188.28;1032017;28;20278;-76
2022/01/01 01:06:42;;;;;;;84.40;47.60;;;;;;;11.11;100.00;102194.50;1036321;28;20288;-74
2022/01/01 01:07:13;;;;;;;72.30;49.50;;;;;;;11.08;100.00;102192.22;1035151;28;20291;-74
2022/01/01 01:07:45;;;;;;;72.55;48.20;;;;;;;11.08;100.00;102190.38;1031980;28;20662;-74
2022/01/01 01:08:17;;;;;;;73.90;48.63;;;;;;;11.07;100.00;102191.41;1031187;28;20642;-74
2022/01/01 01:08:49;;;;;;;69.43;48.45;;;;;;;11.07;100.00;102193.25;1027598;28;20290;-74
2022/01/01 01:09:21;;;;;;;77.53;48.05;;;;;;;11.13;99.96;102187.16;1027300;28;20290;-74
2022/01/01 01:09:52;;;;;;;72.45;47.10;;;;;;;11.10;99.97;102199.03;1032126;28;20279;-75
2022/01/01 01:10:24;;;;;;;74.78;50.10;;;;;;;11.06;99.74;102187.06;1035472;28;20307;-74
2022/01/01 01:10:57;;;;;;;70.25;48.20;;;;;;;11.07;100.00;102194.06;1036498;28;20284;-74
2022/01/01 01:11:29;;;;;;;79.82;48.05;;;;;;;11.07;100.00;102190.56;1037311;28;20649;-74
2022/01/01 01:12:00;;;;;;;70.13;47.85;;;;;;;11.12;99.94;102185.50;1030930;28;20308;-74
2022/01/01 01:12:39;;;;;;;80.57;49.22;;;;;;;11.10;100.00;102184.84;1030457;28;20290;-74
2022/01/01 01:13:13;;;;;;;79.10;48.70;;;;;;;11.11;99.89;102189.19;1033263;28;20284;-74
2022/01/01 01:13:50;;;;;;;76.63;48.15;;;;;;;11.08;100.00;102190.38;1036830;28;20700;-74
2022/01/01 01:14:24;;;;;;;75.53;46.45;;;;;;;11.07;100.00;102185.25;1038134;28;20285;-75
2022/01/01 01:14:56;;;;;;;72.47;47.97;;;;;;;11.07;100.00;102190.56;1035002;28;20292;-74
2022/01/01 01:15:30;;;;;;;72.63;48.10;;;;;;;11.05;100.00;102197.94;1037388;28;20296;-75
2022/01/01 01:16:01;;;;;;;77.55;49.00;;;;;;;11.05;100.00;102189.94;1034645;28;20281;-74
2022/01/01 01:16:33;;;;;;;74.38;49.92;;;;;;;11.07;100.00;102198.56;1031597;28;20285;-75
2022/01/01 01:17:04;;;;;;;65.72;49.03;;;;;;;11.05;100.00;102196.09;1031347;28;20769;-74
2022/01/01 01:17:36;;;;;;;89.85;49.88;;;;;;;11.04;100.00;102199.78;1028100;28;20282;-74
2022/01/01 01:18:09;;;;;;;71.38;48.22;;;;;;;11.04;100.00;102196.28;1031746;28;20318;-74
2022/01/01 01:18:40;;;;;;;77.85;49.38;;;;;;;11.04;100.00;102204.28;1032013;28;20280;-74
2022/01/01 01:19:12;;;;;;;77.38;48.38;;;;;;;11.06;100.00;102202.25;1031208;28;20277;-74
2022/01/01 01:19:43;;;;;;;78.82;47.45;;;;;;;11.04;100.00;102201.63;1027171;28;20286;-75
2022/01/01 01:20:16;;;;;;;79.05;49.65;;;;;;;11.02;100.00;102196.47;1027575;28;20286;-74
2022/01/01 01:20:47;;;;;;;89.22;48.60;;;;;;;11.03;99.90;102197.28;1031603;28;20281;-74
2022/01/01 01:21:21;;;;;;;73.82;49.53;;;;;;;10.99;100.00;102188.84;1031022;28;20281;-74
2022/01/01 01:21:52;;;;;;;74.65;48.35;;;;;;;11.05;100.00;102195.25;1027455;28;20282;-74
2022/01/01 01:22:26;;;;;;;71.55;47.22;;;;;;;11.07;99.89;102187.91;1030589;28;20297;-75
2022/01/01 01:22:58;;;;;;;70.55;46.00;;;;;;;11.04;100.00;102194.44;1031265;28;20301;-74
2022/01/01 01:23:29;;;;;;;73.78;48.90;;;;;;;11.06;100.00;102186.25;1032345;28;20292;-74
2022/01/01 01:24:01;;;;;;;73.78;48.38;;;;;;;11.05;99.90;102190.75;1030939;28;20289;-74
2022/01/01 01:24:34;;;;;;;72.78;46.97;;;;;;;11.06;100.00;102184.41;1031888;28;20286;-75
2022/01/01 01:25:06;;;;;;;71.90;46.88;;;;;;;11.04;99.73;102183.78;1036283;28;20755;-75
2022/01/01 01:25:40;;;;;;;80.05;50.85;;;;;;;11.02;99.86;102184.97;1035818;28;20292;-74
2022/01/01 01:26:12;;;;;;;72.30;47.17;;;;;;;11.03;99.91;102189.28;1039093;28;20822;-74
2022/01/01 01:26:48;;;;;;;75.82;50.10;;;;;;;11.02;100.00;102187.63;1035739;28;20277;-75
2022/01/01 01:27:20;;;;;;;76.63;47.80;;;;;;;11.02;100.00;102190.31;1036636;28;20359;-74
2022/01/01 01:27:51;;;;;;;69.28;48.72;;;;;;;11.06;100.00;102192.41;1034699;28;20276;-74
2022/01/01 01:28:23;;;;;;;70.22;47.90;;;;;;;11.00;100.00;102193.16;1035934;28;21572;-75
2022/01/01 01:28:56;;;;;;;75.05;47.80;;;;;;;11.04;100.00;102201.63;1039477;28;20284;-75
2022/01/01 01:29:30;;;;;;;68.75;48.50;;;;;;;11.04;100.00;102193.63;1039100;28;20280;-74
2022/01/01 01:30:09;;;;;;;75.45;50.35;;;;;;;11.03;100.00;102198.13;1034368;28;20308;-74
2022/01/01 01:30:41;;;;;;;70.55;48.15;;;;;;;11.03;100.00;102191.97;1030863;28;21575;-74
2022/01/01 01:31:13;;;;;;;82.53;50.83;;;;;;;11.01;100.00;102200.16;1033543;28;20285;-75
2022/01/01 01:31:46;;;;;;;73.50;49.58;;;;;;;11.01;100.00;102199.31;1032718;28;20285;-74
2022/01/01 01:32:17;;;;;;;76.38;49.40;;;;;;;10.99;100.00;102201.34;1029551;28;21117;-74
2022/01/01 01:32:49;;;;;;;77.90;50.85;;;;;;;11.02;100.00;102196.47;1028104;28;20286;-75
2022/01/01 01:33:20;;;;;;;77.28;50.15;;;;;;;11.06;99.86;102196.91;1027773;28;20282;-74
2022/01/01 01:33:51;;;;;;;74.05;50.92;;;;;;;11.06;99.87;102196.91;1027612;28;20293;-75
2022/01/01 01:34:23;;;;;;;86.82;52.85;;;;;;;11.03;99.91;102198.13;1025673;28;20751;-74
2022/01/01 01:34:55;;;;;;;84.07;51.47;;;;;;;11.05;100.00;102195.25;1031523;28;20685;-75
2022/01/01 01:35:26;;;;;;;82.22;54.13;;;;;;;11.07;99.69;102187.91;1031852;28;20270;-75
2022/01/01 01:35:58;;;;;;;89.65;53.65;;;;;;;11.06;100.00;102199.59;1031518;28;20312;-74
2022/01/01 01:36:29;;;;;;;88.82;54.05;;;;;;;11.08;99.71;102197.56;1030743;28;20284;-74
2022/01/01 01:37:01;;;;;;;77.30;55.97;;;;;;;11.05;100.00;102189.94;1030064;28;20290;-74
2022/01/01 01:37:32;;;;;;;87.57;57.75;;;;;;;11.07;99.83;102193.25;1035093;28;20328;-75
2022/01/01 01:38:05;;;;;;;82.47;54.92;;;;;;;11.07;99.34;102193.25;1035821;28;20303;-74
2022/01/01 01:38:36;;;;;;;86.85;57.40;;;;;;;11.05;99.68;102195.25;1035520;28;20269;-75
2022/01/01 01:39:08;;;;;;;79.22;56.67;;;;;;;11.03;100.00;102192.78;1035055;28;20314;-74
2022/01/01 01:39:39;;;;;;;83.53;55.33;;;;;;;11.02;100.00;102188.47;1031332;28;20285;-74
2022/01/01 01:40:11;;;;;;;87.75;58.08;;;;;;;11.08;99.96;102185.06;1035071;28;20281;-75
2022/01/01 01:40:42;;;;;;;80.40;53.97;;;;;;;11.11;99.78;102189.19;1035010;28;20664;-74
2022/01/01 01:41:14;;;;;;;80.03;56.75;;;;;;;11.07;99.92;102185.25;1033904;28;20280;-74
2022/01/01 01:41:46;;;;;;;96.22;59.33;;;;;;;11.06;100.00;102180.91;1031403;28;20292;-74
2022/01/01 01:42:18;;;;;;;85.07;57.05;;;;;;;11.03;99.87;102183.97;1033103;28;20299;-75
2022/01/01 01:42:49;;;;;;;99.22;59.45;;;;;;;11.09;99.74;102186.69;1030287;28;20281;-74
2022/01/01 01:43:21;;;;;;;84.53;60.00;;;;;;;11.06;99.87;102180.91;1029457;28;20284;-74
2022/01/01 01:43:54;;;;;;;91.55;61.38;;;;;;;11.05;100.00;102181.94;1023983;28;20287;-74
2022/01/01 01:44:32;;;;;;;92.07;61.60;;;;;;;11.05;99.85;102181.94;1028533;28;20314;-74
2022/01/01 01:45:05;;;;;;;87.68;61.03;;;;;;;11.05;99.91;102187.25;1032880;28;20285;-74
2022/01/01 01:45:37;;;;;;;90.90;59.40;;;;;;;11.08;99.95;102200.22;1036381;28;20803;-75
2022/01/01 01:46:09;;;;;;;81.57;55.80;;;;;;;11.04;99.84;102196.28;1039386;28;20288;-75
2022/01/01 01:46:41;;;;;;;90.13;60.30;;;;;;;11.03;99.72;102197.28;1037866;28;20292;-74
2022/01/01 01:47:15;;;;;;;94.18;60.58;;;;;;;11.02;99.82;102198.31;1039284;28;20276;-75
2022/01/01 01:47:48;;;;;;;92.03;59.58;;;;;;;11.02;100.00;102198.31;1039153;28;20755;-74
2022/01/01 01:48:20;;;;;;;89.80;61.40;;;;;;;11.00;100.00;102192.34;1034410;28;20276;-74
2022/01/01 01:48:52;;;;;;;99.78;62.47;;;;;;;11.01;100.00;102194.00;1034410;28;20289;-74
2022/01/01 01:49:23;;;;;;;95.75;61.13;;;;;;;11.02;99.89;102198.31;1035731;28;20277;-75
2022/01/01 01:49:59;;;;;;;94.53;65.05;;;;;;;11.03;100.00;102194.63;1039564;28;20284;-75
2022/01/01 01:50:33;;;;;;;95.07;63.45;;;;;;;11.04;100.00;102188.28;1038125;28;20287;-74
2022/01/01 01:51:05;;;;;;;88.28;62.10;;;;;;;11.03;99.84;102198.13;1038731;28;20833;-75
2022/01/01 01:51:36;;;;;;;94.65;65.05;;;;;;;11.02;100.00;102198.31;1038040;28;20304;-74
2022/01/01 01:52:08;;;;;;;94.03;64.13;;;;;;;11.03;100.00;102199.97;1038392;28;20923;-74
2022/01/01 01:52:43;;;;;;;92.10;62.25;;;;;;;11.03;99.74;102195.44;1039209;28;20662;-75
2022/01/01 01:53:14;;;;;;;90.00;64.97;;;;;;;11.04;100.00;102196.28;1035535;28;20289;-78
2022/01/01 01:53:46;;;;;;;97.28;65.15;;;;;;;11.08;99.91;102200.22;1030822;28;20757;-79
2022/01/01 01:54:18;;;;;;;97.28;65.75;;;;;;;11.09;100.00;102201.88;1031325;28;20309;-78
2022/01/01 01:54:50;;;;;;;86.55;60.92;;;;;;;11.05;100.00;102205.94;1032391;28;20277;-78
2022/01/01 01:55:22;;;;;;;92.75;62.05;;;;;;;11.08;99.70;102206.38;1031466;28;20288;-78
2022/01/01 01:55:54;;;;;;;94.65;62.80;;;;;;;11.07;99.93;102209.22;1035055;28;20293;-78
2022/01/01 01:56:26;;;;;;;87.30;61.17;;;;;;;11.01;100.00;102199.31;1036456;28;20277;-78
2022/01/01 01:56:58;;;;;;;98.88;64.72;;;;;;;11.04;99.89;102201.63;1035518;28;20285;-78
2022/01/01 01:57:30;;;;;;;95.75;64.40;;;;;;;11.06;99.92;102205.75;1034379;28;20909;-78
2022/01/01 01:58:02;;;;;;;88.85;63.45;;;;;;;11.07;99.58;102210.06;1035069;28;20301;-79
2022/01/01 01:58:33;;;;;;;90.63;61.85;;;;;;;11.09;100.00;102191.22;1031109;28;20286;-78
2022/01/01 01:59:05;;;;;;;93.47;63.45;;;;;;;11.10;99.76;102195.53;1029685;28;20293;-78
2022/01/01 01:59:36;;;;;;;91.95;65.00;;;;;;;11.09;99.85;102201.88;1027562;28;20282;-78
2022/01/01 02:00:36;;;;;;;90.78;62.25;;;;;;;11.10;99.96;102201.69;1027465;28;20340;-78
2022/01/01 02:01:34;;;;;;;95.72;61.50;;;;;;;11.08;99.48;102201.06;1034939;28;20348;-79
2022/01/01 02:02:07;;;;;;;96.78;60.22;;;;;;;11.05;99.54;102201.44;1038253;28;20318;-78
2022/01/01 02:02:38;;;;;;;94.97;60.55;;;;;;;11.04;99.53;102198.94;1038105;28;20280;-78
2022/01/01 02:03:11;;;;;;;96.53;61.20;;;;;;;11.04;99.77;102198.94;1035292;28;20655;-78
2022/01/01 02:03:42;;;;;;;91.03;59.67;;;;;;;11.03;99.86;102205.28;1034409;28;20311;-78
2022/01/01 02:04:14;;;;;;;92.80;59.38;;;;;;;11.01;99.94;102202.00;1034407;28;20359;-78
2022/01/01 02:04:45;;;;;;;83.32;58.83;;;;;;;10.99;100.00;102194.19;1036014;28;20285;-79
2022/01/01 02:05:17;;;;;;;92.18;61.20;;;;;;;11.00;100.00;102206.50;1039182;28;20287;-79
2022/01/01 02:05:48;;;;;;;101.55;60.78;;;;;;;10.99;99.89;102204.00;1039297;28;20763;-78
2022/01/01 02:06:20;;;;;;;91.00;61.28;;;;;;;11.02;100.00;102207.13;1035396;28;20272;-78
2022/01/01 02:06:52;;;;;;;98.57;65.53;;;;;;;11.02;100.00;102195.63;1034703;28;20415;-78
2022/01/01 02:07:24;;;;;;;87.38;59.50;;;;;;;11.02;100.00;102206.31;1031270;28;20300;-78
2022/01/01 02:07:57;;;;;;;86.68;59.63;;;;;;;11.03;100.00;102206.13;1027161;28;20297;-78
2022/01/01 02:08:28;;;;;;;99.03;63.30;;;;;;;11.04;100.00;102204.28;1027519;28;20290;-79
2022/01/01 02:09:00;;;;;;;95.95;61.30;;;;;;;11.04;100.00;102204.28;1027774;28;20301;-78
2022/01/01 02:09:31;;;;;;;97.43;61.80;;;;;;;11.01;99.81;102204.66;1027962;28;20286;-78
2022/01/01 02:10:04;;;;;;;101.20;63.58;;;;;;;11.03;100.00;102203.44;1030900;28;20296;-78
2022/01/01 02:10:36;;;;;;;88.03;62.42;;;;;;;11.05;100.00;102205.94;1031782;28;20293;-78
2022/01/01 02:11:07;;;;;;;94.45;65.20;;;;;;;11.03;100.00;102205.28;1031223;28;20404;-78
2022/01/01 02:11:39;;;;;;;88.25;62.25;;;;;;;11.03;100.00;102203.44;1031433;28;20285;-78
2022/01/01 02:12:11;;;;;;;98.63;63.58;;;;;;;11.04;99.55;102204.28;1037534;28;20304;-78
2022/01/01 02:12:48;;;;;;;102.97;63.53;;;;;;;11.02;99.79;102198.31;1032172;28;20625;-78
2022/01/01 02:13:31;;;;;;;86.22;61.53;;;;;;;11.00;100.00;102203.81;1035888;28;20287;-78
2022/01/01 02:14:09;;;;;;;97.18;62.95;;;;;;;10.99;100.00;102201.34;1039106;28;20644;-78
2022/01/01 02:15:08;;;;;;;87.65;62.22;;;;;;;10.97;100.00;102201.53;1035991;28;20362;-78
2022/01/01 02:17:08;;;;;;;103.45;60.15;;;;;;;11.03;99.94;102206.13;1032231;28;20301;-79
2022/01/01 02:17:40;;;;;;;91.60;57.80;;;;;;;11.04;100.00;102209.59;1037254;28;20276;-78
2022/01/01 02:18:11;;;;;;;102.70;60.92;;;;;;;11.01;99.70;102209.97;1034454;28;20288;-78
2022/01/01 02:18:44;;;;;;;100.35;59.97;;;;;;;11.02;99.94;102207.13;1033307;28;20657;-78
2022/01/01 02:19:15;;;;;;;90.43;58.72;;;;;;;10.99;100.00;102204.00;1030724;28;20305;-78
2022/01/01 02:19:52;;;;;;;90.05;58.45;;;;;;;10.97;100.00;102206.88;1026165;28;20650;-78
2022/01/01 02:20:25;;;;;;;91.68;61.47;;;;;;;11.00;100.00;102208.34;1030611;28;20296;-78
2022/01/01 02:20:57;;;;;;;90.75;59.80;;;;;;;10.98;99.74;102199.69;1030728;28;20787;-78
2022/01/01 02:21:29;;;;;;;89.53;62.40;;;;;;;10.98;99.93;102213.03;1035525;28;20295;-78
2022/01/01 02:22:04;;;;;;;97.65;62.35;;;;;;;10.96;100.00;102210.53;1033306;28;20289;-79
2022/01/01 02:22:40;;;;;;;87.43;59.05;;;;;;;10.96;99.75;102215.06;1031274;28;20281;-78
2022/01/01 02:23:14;;;;;;;92.65;61.95;;;;;;;10.93;99.91;102212.72;1034558;28;21529;-78
2022/01/01 02:23:47;;;;;;;93.93;61.00;;;;;;;10.94;100.00;102220.53;1030727;28;20768;-79
2022/01/01 02:24:19;;;;;;;99.97;64.13;;;;;;;10.98;100.00;102221.84;1028834;28;20282;-78
2022/01/01 02:24:50;;;;;;;86.35;61.83;;;;;;;10.94;100.00;102220.53;1028609;28;20286;-78
2022/01/01 02:25:22;;;;;;;95.28;61.45;;;;;;;10.94;100.00;102225.03;1031654;28;20289;-78
2022/01/01 02:25:55;;;;;;;94.32;63.30;;;;;;;10.92;100.00;102213.75;1031384;28;20281;-78
2022/01/01 02:26:34;;;;;;;101.05;65.85;;;;;;;10.94;100.00;102219.72;1031937;28;20285;-79
2022/01/01 02:27:06;;;;;;;90.30;62.92;;;;;;;10.93;100.00;102228.72;1034733;28;20810;-78
2022/01/01 02:27:38;;;;;;;89.95;66.07;;;;;;;10.90;100.00;102224.59;1032373;28;20277;-78
2022/01/01 02:28:12;;;;;;;93.30;62.83;;;;;;;10.91;100.00;102230.75;1031651;28;20796;-78
2022/01/01 02:28:47;;;;;;;93.80;67.75;;;;;;;10.92;100.00;102221.75;1030871;28;20654;-78
2022/01/01 02:29:20;;;;;;;99.72;64.05;;;;;;;10.90;100.00;102224.59;1032596;28;20290;-74